Time;durP1;ratioP1;P1;durP2;ratioP2;P2;SDS_P1;SDS_P2;PMS_P1;PMS_P2;Temp;Humidity;BMP_temperature;BMP_pressure;BME280_temperature;BME280_humidity;BME280_pressure;Samples;Min_cycle;Max_cycle;Signal;HPM_P1;HPM_P2
2021/12/05 00:22:18;;;;;;;27.60;11.03;;;;;;;;;;4973347;28;20195;-71
2021/12/05 00:24:48;;;;;;;24.67;12.43;;;;;;;;;;4994919;28;20252;-71
2021/12/05 00:27:19;;;;;;;38.10;13.50;;;;;;;;;;5000169;28;20209;-71
2021/12/05 00:38:07;;;;;;;24.27;12.00;;;;;;;;;;5009755;28;20210;-71
2021/12/05 00:40:45;;;;;;;27.63;13.33;;;;;;;;;;5007667;28;20190;-71
2021/12/05 00:43:39;;;;;;;30.57;13.40;;;;;;;;;;4996966;28;20221;-71
2021/12/05 00:56:39;;;;;;;27.53;11.83;;;;;;;;;;5009563;28;20240;-71
2021/12/05 01:09:41;;;;;;;26.17;10.43;;;;;;;;;;5000609;28;20228;-71
2021/12/05 01:12:17;;;;;;;24.33;11.20;;;;;;;;;;5009502;28;20190;-71
2021/12/05 01:17:32;;;;;;;23.53;9.90;;;;;;;;;;5008115;28;20614;-71
2021/12/05 01:20:00;;;;;;;19.73;8.77;;;;;;;;;;5002713;28;20205;-71
2021/12/05 01:22:28;;;;;;;20.47;8.87;;;;;;;;;;5005083;28;20238;-71
2021/12/05 01:25:04;;;;;;;22.93;8.77;;;;;;;;;;4994052;28;20288;-71
2021/12/05 01:30:09;;;;;;;21.93;8.47;;;;;;;;;;5000223;28;20238;-71
2021/12/05 01:35:23;;;;;;;19.70;7.10;;;;;;;;;;5004601;28;20226;-71
2021/12/05 01:43:36;;;;;;;18.33;6.93;;;;;;;;;;5011268;28;20182;-71
2021/12/05 01:49:04;;;;;;;18.67;7.03;;;;;;;;;;5009936;28;20198;-72
2021/12/05 01:57:01;;;;;;;19.93;7.07;;;;;;;;;;4999211;28;20683;-71
2021/12/05 02:15:18;;;;;;;13.50;5.53;;;;;;;;;;5035830;28;20546;-71
2021/12/05 02:16:31;;;;;;;15.23;6.57;;;;;;;;;;5035503;28;20244;-71
2021/12/05 02:30:16;;;;;;;24.60;6.23;;;;;;;;;;5011620;28;20568;-71
2021/12/05 02:41:04;;;;;;;17.53;7.00;;;;;;;;;;5014576;28;20206;-71
2021/12/05 02:43:34;;;;;;;15.20;6.00;;;;;;;;;;4998086;28;20202;-72
2021/12/05 02:46:02;;;;;;;20.80;6.93;;;;;;;;;;5010790;28;20197;-71
2021/12/05 02:48:31;;;;;;;19.50;6.57;;;;;;;;;;5001508;28;20290;-71
2021/12/05 02:51:00;;;;;;;22.83;6.10;;;;;;;;;;5006881;28;20218;-72
2021/12/05 02:53:43;;;;;;;22.57;7.27;;;;;;;;;;5001552;28;20183;-72
2021/12/05 02:56:10;;;;;;;23.70;7.47;;;;;;;;;;5003273;28;20508;-72
2021/12/05 02:58:43;;;;;;;19.33;7.03;;;;;;;;;;5007945;28;20688;-72
2021/12/05 03:03:42;;;;;;;16.23;7.13;;;;;;;;;;5014651;28;20290;-71
2021/12/05 03:06:16;;;;;;;19.40;6.80;;;;;;;;;;4997887;28;20266;-71
2021/12/05 03:08:42;;;;;;;20.87;7.10;;;;;;;;;;5010818;28;20285;-71
2021/12/05 03:11:08;;;;;;;27.13;6.80;;;;;;;;;;4997275;28;20269;-72
2021/12/05 03:13:36;;;;;;;18.33;7.37;;;;;;;;;;5000241;28;20240;-71
2021/12/05 03:16:03;;;;;;;21.97;6.27;;;;;;;;;;4988314;28;20230;-71
2021/12/05 03:18:28;;;;;;;19.77;7.17;;;;;;;;;;4995622;28;20667;-72
2021/12/05 03:20:54;;;;;;;27.50;7.40;;;;;;;;;;4995524;28;20195;-71
2021/12/05 03:23:19;;;;;;;19.33;6.63;;;;;;;;;;5009299;28;20655;-72
2021/12/05 03:25:45;;;;;;;28.53;7.63;;;;;;;;;;4995100;28;20187;-71
2021/12/05 03:28:10;;;;;;;16.57;6.80;;;;;;;;;;5009562;28;20249;-71
2021/12/05 03:30:37;;;;;;;19.20;7.10;;;;;;;;;;4994327;28;20264;-72
2021/12/05 03:33:03;;;;;;;20.73;6.73;;;;;;;;;;5010064;28;20291;-71
2021/12/05 03:35:30;;;;;;;21.17;8.07;;;;;;;;;;5003695;28;20191;-71
2021/12/05 03:37:58;;;;;;;23.47;7.70;;;;;;;;;;5001437;28;20237;-72
2021/12/05 03:40:26;;;;;;;26.83;7.70;;;;;;;;;;5008917;28;20613;-72
2021/12/05 03:42:54;;;;;;;20.80;7.73;;;;;;;;;;4998303;28;20199;-71
2021/12/05 03:45:25;;;;;;;22.73;7.47;;;;;;;;;;5014891;28;20535;-71
2021/12/05 03:47:50;;;;;;;27.70;7.27;;;;;;;;;;4996384;28;20197;-71
2021/12/05 03:50:16;;;;;;;16.53;6.57;;;;;;;;;;5016074;28;20190;-72
2021/12/05 03:52:42;;;;;;;27.33;7.00;;;;;;;;;;4996536;28;20198;-71
2021/12/05 03:55:11;;;;;;;30.97;8.77;;;;;;;;;;5006684;28;20347;-72
2021/12/05 03:57:37;;;;;;;26.13;7.27;;;;;;;;;;4998713;28;20618;-72
2021/12/05 04:00:25;;;;;;;28.07;8.17;;;;;;;;;;5007210;28;20186;-72
2021/12/05 04:02:52;;;;;;;30.20;7.37;;;;;;;;;;4995411;28;20666;-71
2021/12/05 04:05:18;;;;;;;24.53;6.43;;;;;;;;;;5005393;28;20190;-71
2021/12/05 04:07:43;;;;;;;19.10;6.67;;;;;;;;;;4995557;28;20190;-72
2021/12/05 04:10:10;;;;;;;18.67;6.10;;;;;;;;;;5006478;28;20229;-71
2021/12/05 04:12:36;;;;;;;23.20;6.30;;;;;;;;;;4992699;28;20174;-71
2021/12/05 04:15:04;;;;;;;24.17;5.80;;;;;;;;;;5006672;28;20695;-71
2021/12/05 04:17:29;;;;;;;18.77;5.60;;;;;;;;;;5003679;28;20233;-71
2021/12/05 04:19:55;;;;;;;32.93;5.73;;;;;;;;;;4997282;28;20643;-71
2021/12/05 04:22:20;;;;;;;18.67;4.83;;;;;;;;;;5001706;28;20178;-71
2021/12/05 04:24:46;;;;;;;25.13;5.17;;;;;;;;;;4999465;28;20186;-71
2021/12/05 04:27:12;;;;;;;21.40;4.70;;;;;;;;;;5004892;28;20238;-71
2021/12/05 04:29:38;;;;;;;19.30;5.40;;;;;;;;;;4995502;28;20657;-71
2021/12/05 04:32:04;;;;;;;24.77;5.67;;;;;;;;;;5005891;28;20179;-71
2021/12/05 04:34:31;;;;;;;25.63;5.93;;;;;;;;;;4996365;28;20182;-72
2021/12/05 04:36:56;;;;;;;25.00;5.17;;;;;;;;;;4998720;28;20199;-71
2021/12/05 04:39:24;;;;;;;18.57;5.83;;;;;;;;;;4999046;28;20704;-71
2021/12/05 04:41:50;;;;;;;22.90;6.10;;;;;;;;;;5003233;28;20542;-71
2021/12/05 04:44:17;;;;;;;29.37;7.70;;;;;;;;;;4998934;28;20175;-72
2021/12/05 04:46:42;;;;;;;21.00;5.70;;;;;;;;;;5022951;28;20260;-72
2021/12/05 04:49:08;;;;;;;25.97;6.47;;;;;;;;;;5008387;28;20797;-71
2021/12/05 04:51:39;;;;;;;22.17;6.27;;;;;;;;;;5002738;28;20240;-72
2021/12/05 04:54:05;;;;;;;31.90;6.93;;;;;;;;;;5006164;28;20520;-72
2021/12/05 04:56:33;;;;;;;19.63;5.97;;;;;;;;;;4999847;28;20334;-72
2021/12/05 04:59:00;;;;;;;22.00;5.67;;;;;;;;;;5009191;28;20183;-72
2021/12/05 05:01:28;;;;;;;17.37;5.27;;;;;;;;;;4997724;28;20239;-72
2021/12/05 05:03:54;;;;;;;14.53;5.53;;;;;;;;;;5011869;28;20178;-72
2021/12/05 05:06:20;;;;;;;21.83;5.87;;;;;;;;;;5000466;28;20273;-72
2021/12/05 05:08:49;;;;;;;21.23;5.20;;;;;;;;;;5007557;28;20642;-72
2021/12/05 05:11:17;;;;;;;26.63;5.93;;;;;;;;;;4998309;28;20191;-72
2021/12/05 05:13:44;;;;;;;23.10;5.67;;;;;;;;;;5007605;28;20396;-72
2021/12/05 05:16:12;;;;;;;23.57;6.07;;;;;;;;;;4999157;28;20623;-72
2021/12/05 05:21:17;;;;;;;21.97;5.90;;;;;;;;;;5000039;28;20703;-72
2021/12/05 05:24:01;;;;;;;18.97;5.40;;;;;;;;;;5006660;28;20474;-72
2021/12/05 05:26:49;;;;;;;16.90;5.63;;;;;;;;;;4995747;28;20191;-72
2021/12/05 05:40:20;;;;;;;21.47;6.27;;;;;;;;;;5011334;28;20278;-72
2021/12/05 05:43:05;;;;;;;22.83;6.73;;;;;;;;;;5003102;28;20227;-72
2021/12/05 05:48:30;;;;;;;25.63;6.87;;;;;;;;;;5009144;28;20803;-72
2021/12/05 05:50:56;;;;;;;14.37;6.67;;;;;;;;;;5010602;28;20251;-72
2021/12/05 05:53:21;;;;;;;16.67;6.23;;;;;;;;;;5001084;28;20595;-72
2021/12/05 05:55:48;;;;;;;18.20;6.30;;;;;;;;;;5008822;28;20288;-72
2021/12/05 05:58:16;;;;;;;19.27;7.20;;;;;;;;;;4998402;28;20195;-72
2021/12/05 06:01:04;;;;;;;16.80;6.57;;;;;;;;;;5007391;28;20658;-72
2021/12/05 06:03:31;;;;;;;13.73;6.27;;;;;;;;;;4995333;28;20630;-72
2021/12/05 06:06:01;;;;;;;18.33;6.30;;;;;;;;;;5009943;28;20594;-72
2021/12/05 06:08:29;;;;;;;16.33;6.53;;;;;;;;;;4993205;28;20297;-72
2021/12/05 06:10:59;;;;;;;18.13;6.63;;;;;;;;;;5003074;28;20195;-72
2021/12/05 06:13:27;;;;;;;13.37;6.43;;;;;;;;;;5003070;28;20191;-72
2021/12/05 06:15:52;;;;;;;19.77;6.67;;;;;;;;;;5001218;28;20666;-72
2021/12/05 06:18:18;;;;;;;19.37;6.57;;;;;;;;;;5007268;28;20186;-72
2021/12/05 06:20:44;;;;;;;14.80;6.03;;;;;;;;;;4997842;28;20200;-72
2021/12/05 06:23:11;;;;;;;16.43;5.77;;;;;;;;;;5007388;28;20639;-72
2021/12/05 06:25:38;;;;;;;13.93;6.33;;;;;;;;;;5005230;28;20190;-72
2021/12/05 06:28:10;;;;;;;16.03;6.30;;;;;;;;;;5002259;28;20203;-72
2021/12/05 06:30:46;;;;;;;22.30;6.70;;;;;;;;;;4993439;28;20297;-72
2021/12/05 06:48:46;;;;;;;12.30;5.80;;;;;;;;;;5010488;28;20255;-72
2021/12/05 06:51:16;;;;;;;15.93;6.07;;;;;;;;;;4994128;28;20205;-72
2021/12/05 06:53:42;;;;;;;16.60;5.60;;;;;;;;;;5008935;28;20205;-72
2021/12/05 06:56:08;;;;;;;16.60;6.30;;;;;;;;;;4995737;28;20210;-72
2021/12/05 06:58:35;;;;;;;13.70;5.43;;;;;;;;;;5010601;28;20186;-72
2021/12/05 07:01:02;;;;;;;17.60;4.93;;;;;;;;;;4998994;28;20533;-72
2021/12/05 07:03:28;;;;;;;16.93;6.27;;;;;;;;;;5002767;28;20662;-72
2021/12/05 07:05:59;;;;;;;9.43;4.57;;;;;;;;;;5001630;28;20195;-72
2021/12/05 07:08:29;;;;;;;20.70;5.87;;;;;;;;;;5000547;28;20631;-72
2021/12/05 07:11:01;;;;;;;12.53;5.37;;;;;;;;;;5005763;28;20214;-72
2021/12/05 07:16:19;;;;;;;15.30;5.10;;;;;;;;;;4319120;28;10000831;-72
2021/12/05 07:21:40;;;;;;;11.70;4.70;;;;;;;;;;5000488;28;20222;-72
2021/12/05 07:26:51;;;;;;;11.23;4.50;;;;;;;;;;5004687;28;20523;-72
2021/12/05 07:40:19;;;;;;;15.73;4.37;;;;;;;;;;5003154;28;20256;-72
2021/12/05 07:40:29;;;;;;;10.87;4.47;;;;;;;;;;4994664;28;20226;-72
2021/12/05 07:43:02;;;;;;;12.20;4.70;;;;;;;;;;4993956;28;20186;-72
2021/12/05 07:45:35;;;;;;;17.43;4.60;;;;;;;;;;4989768;28;20199;-72
2021/12/05 07:48:10;;;;;;;9.83;3.80;;;;;;;;;;4994418;28;20710;-72
2021/12/05 07:51:15;;;;;;;12.00;4.50;;;;;;;;;;4987516;28;20260;-72
2021/12/05 07:53:35;;;;;;;13.67;4.17;;;;;;;;;;5004389;28;20544;-72
2021/12/05 07:56:09;;;;;;;12.20;4.00;;;;;;;;;;5002263;28;20550;-72
2021/12/05 08:01:25;;;;;;;16.47;4.60;;;;;;;;;;4996500;28;20195;-72
2021/12/05 08:14:57;;;;;;;7.47;3.67;;;;;;;;;;4994166;28;20217;-72
2021/12/05 08:17:23;;;;;;;10.23;4.47;;;;;;;;;;4993766;28;20230;-72
2021/12/05 08:19:48;;;;;;;12.83;3.67;;;;;;;;;;5001743;28;20198;-72
2021/12/05 08:22:15;;;;;;;13.80;4.63;;;;;;;;;;4996053;28;20222;-72
2021/12/05 08:24:42;;;;;;;11.63;3.83;;;;;;;;;;4997877;28;20602;-72
2021/12/05 08:27:09;;;;;;;13.67;4.07;;;;;;;;;;4988027;28;20199;-72
2021/12/05 08:29:46;;;;;;;9.43;3.80;;;;;;;;;;5000667;28;20308;-72
2021/12/05 08:32:35;;;;;;;10.73;3.67;;;;;;;;;;4995845;28;20222;-72
2021/12/05 08:35:12;;;;;;;16.23;4.37;;;;;;;;;;4998473;28;20545;-72
2021/12/05 08:43:29;;;;;;;11.60;4.20;;;;;;;;;;4988366;28;20290;-72
2021/12/05 09:08:42;;;;;;;9.83;3.73;;;;;;;;;;5005854;28;20836;-72
2021/12/05 09:21:59;;;;;;;7.60;3.40;;;;;;;;;;5000957;28;20210;-71
2021/12/05 10:02:44;;;;;;;8.97;2.70;;;;;;;;;;5001403;28;20256;-71
2021/12/05 10:11:02;;;;;;;5.90;2.10;;;;;;;;;;4997438;28;20792;-73
2021/12/05 10:13:42;;;;;;;5.47;2.10;;;;;;;;;;4998480;28;20191;-71
2021/12/05 10:16:22;;;;;;;6.37;1.83;;;;;;;;;;4998529;28;20226;-71
2021/12/05 10:19:15;;;;;;;7.37;2.30;;;;;;;;;;5003142;28;20186;-71
2021/12/05 10:38:17;;;;;;;3.93;2.20;;;;;;;;;;4992698;28;20202;-72
2021/12/05 10:40:53;;;;;;;7.37;2.40;;;;;;;;;;5016700;28;20191;-71
2021/12/05 10:43:22;;;;;;;7.13;2.40;;;;;;;;;;4995544;28;20723;-71
2021/12/05 10:45:51;;;;;;;2.70;2.00;;;;;;;;;;5003524;28;20207;-71
2021/12/05 10:48:26;;;;;;;10.43;2.40;;;;;;;;;;4991703;28;20194;-71
2021/12/05 10:50:58;;;;;;;4.90;2.10;;;;;;;;;;5000535;28;20272;-71
2021/12/05 10:53:43;;;;;;;3.40;2.20;;;;;;;;;;4989343;28;20273;-71
2021/12/05 10:56:27;;;;;;;6.07;2.40;;;;;;;;;;5001061;28;20666;-71
2021/12/05 10:59:06;;;;;;;7.30;2.83;;;;;;;;;;4992844;28;20204;-71
2021/12/05 11:01:41;;;;;;;5.47;2.60;;;;;;;;;;4997356;28;20219;-71
2021/12/05 11:04:19;;;;;;;6.97;2.43;;;;;;;;;;4994693;28;20588;-71
2021/12/05 11:06:54;;;;;;;8.27;2.73;;;;;;;;;;5001538;28;20190;-71
2021/12/05 11:09:31;;;;;;;5.83;2.60;;;;;;;;;;4992711;28;20561;-71
2021/12/05 11:12:01;;;;;;;5.63;2.70;;;;;;;;;;5001146;28;20185;-71
2021/12/05 11:14:32;;;;;;;4.33;2.73;;;;;;;;;;4991292;28;20194;-71
2021/12/05 11:16:59;;;;;;;3.67;2.50;;;;;;;;;;4996078;28;20234;-71
2021/12/05 11:19:59;;;;;;;5.17;2.87;;;;;;;;;;4985482;28;20648;-71
2021/12/05 11:22:28;;;;;;;6.30;2.73;;;;;;;;;;5009462;28;20210;-71
2021/12/05 11:25:10;;;;;;;5.07;2.60;;;;;;;;;;4996123;28;20550;-72
2021/12/05 11:27:35;;;;;;;6.20;2.80;;;;;;;;;;5003130;28;20182;-72
2021/12/05 11:30:17;;;;;;;5.97;2.60;;;;;;;;;;4998861;28;20225;-71
2021/12/05 11:32:50;;;;;;;6.90;2.73;;;;;;;;;;5010808;28;20196;-71
2021/12/05 11:35:25;;;;;;;5.83;2.60;;;;;;;;;;4994807;28;20217;-73
2021/12/05 11:38:02;;;;;;;7.60;2.30;;;;;;;;;;5006063;28;20815;-72
2021/12/05 11:40:42;;;;;;;5.50;2.43;;;;;;;;;;4995715;28;20538;-72
2021/12/05 11:43:09;;;;;;;4.43;2.30;;;;;;;;;;5002648;28;20190;-72
2021/12/05 11:45:50;;;;;;;6.20;2.30;;;;;;;;;;4998415;28;20233;-72
2021/12/05 11:48:21;;;;;;;4.43;2.97;;;;;;;;;;5005267;28;20313;-72
2021/12/05 11:50:47;;;;;;;6.47;2.60;;;;;;;;;;4996380;28;20226;-72
2021/12/05 11:53:12;;;;;;;6.33;2.90;;;;;;;;;;5000906;28;20194;-71
2021/12/05 11:55:38;;;;;;;7.10;3.27;;;;;;;;;;5005674;28;20210;-72
2021/12/05 11:58:15;;;;;;;5.83;2.83;;;;;;;;;;4998367;28;20688;-72
2021/12/05 12:00:41;;;;;;;6.67;2.50;;;;;;;;;;5004078;28;20190;-72
2021/12/05 12:03:06;;;;;;;6.27;2.83;;;;;;;;;;4991626;28;20287;-72
2021/12/05 12:05:34;;;;;;;7.73;3.37;;;;;;;;;;5003186;28;20261;-72
2021/12/05 12:08:07;;;;;;;6.57;3.50;;;;;;;;;;4990573;28;20209;-72
2021/12/05 12:10:40;;;;;;;5.90;3.40;;;;;;;;;;5008462;28;20195;-72
2021/12/05 12:13:12;;;;;;;5.63;3.40;;;;;;;;;;4997488;28;20197;-72
2021/12/05 12:15:39;;;;;;;4.40;3.37;;;;;;;;;;5006004;28;20195;-71
2021/12/05 12:18:26;;;;;;;7.43;3.27;;;;;;;;;;5013301;28;20195;-71
2021/12/05 12:20:52;;;;;;;4.97;3.87;;;;;;;;;;5009693;28;20648;-71
2021/12/05 12:23:20;;;;;;;8.23;3.83;;;;;;;;;;4993893;28;20210;-71
2021/12/05 12:25:49;;;;;;;4.43;3.17;;;;;;;;;;5015166;28;20182;-72
2021/12/05 12:28:15;;;;;;;7.17;3.40;;;;;;;;;;4992909;28;20214;-72
2021/12/05 12:30:45;;;;;;;8.13;3.93;;;;;;;;;;5014303;28;20883;-72
2021/12/05 12:33:15;;;;;;;8.13;3.33;;;;;;;;;;4993625;28;20565;-72
2021/12/05 12:35:44;;;;;;;6.27;4.30;;;;;;;;;;5008880;28;20195;-71
2021/12/05 12:38:20;;;;;;;7.47;4.27;;;;;;;;;;4998721;28;20254;-72
2021/12/05 12:40:55;;;;;;;7.53;4.10;;;;;;;;;;4314376;28;10000787;-71
2021/12/05 12:43:54;;;;;;;8.90;4.23;;;;;;;;;;4999338;28;20524;-71
2021/12/05 12:46:42;;;;;;;6.97;4.03;;;;;;;;;;5002742;28;20646;-72
2021/12/05 12:49:13;;;;;;;12.10;3.90;;;;;;;;;;4991651;28;20650;-72
2021/12/05 12:51:49;;;;;;;8.17;3.73;;;;;;;;;;5001673;28;20629;-71
2021/12/05 12:54:18;;;;;;;8.33;4.10;;;;;;;;;;4996471;28;20681;-71
2021/12/05 12:57:23;;;;;;;8.83;3.90;;;;;;;;;;5000925;28;20366;-72
2021/12/05 13:00:02;;;;;;;6.03;3.93;;;;;;;;;;5001137;28;20184;-71
2021/12/05 13:11:08;;;;;;;7.63;4.53;;;;;;;;;;4997565;28;20229;-72
2021/12/05 13:13:36;;;;;;;8.07;5.40;;;;;;;;;;5005035;28;20190;-71
2021/12/05 13:16:29;;;;;;;9.57;5.57;;;;;;;;;;5000392;28;20373;-71
2021/12/05 13:19:11;;;;;;;10.40;5.23;;;;;;;;;;5011490;28;20181;-72
2021/12/05 13:21:42;;;;;;;9.03;5.37;;;;;;;;;;4995909;28;20218;-71
2021/12/05 13:24:32;;;;;;;6.83;4.80;;;;;;;;;;5007496;28;20692;-72
2021/12/05 13:27:09;;;;;;;9.70;4.80;;;;;;;;;;5015841;28;20259;-72
2021/12/05 13:29:38;;;;;;;7.57;5.00;;;;;;;;;;5008726;28;20217;-73
2021/12/05 13:32:24;;;;;;;10.24;4.96;;;;;;;;;;4979111;28;10000903;-72
2021/12/05 13:34:51;;;;;;;6.97;5.33;;;;;;;;;;5005157;28;20437;-72
2021/12/05 13:37:29;;;;;;;10.13;5.17;;;;;;;;;;4998195;28;20271;-73
2021/12/05 13:40:14;;;;;;;9.43;5.30;;;;;;;;;;5003295;28;20199;-72
2021/12/05 13:42:48;;;;;;;8.40;5.27;;;;;;;;;;5002479;28;20190;-71
2021/12/05 13:45:23;;;;;;;7.73;5.30;;;;;;;;;;4998951;28;20194;-72
2021/12/05 13:47:51;;;;;;;10.53;5.30;;;;;;;;;;5001695;28;20190;-72
2021/12/05 13:50:22;;;;;;;9.53;5.90;;;;;;;;;;5002373;28;20192;-72
2021/12/05 13:53:03;;;;;;;7.67;5.87;;;;;;;;;;4994419;28;20563;-72
2021/12/05 13:55:42;;;;;;;11.10;6.37;;;;;;;;;;5002792;28;20198;-72
2021/12/05 13:58:36;;;;;;;11.00;6.20;;;;;;;;;;4994038;28;20201;-72
2021/12/05 14:01:25;;;;;;;11.57;6.03;;;;;;;;;;5001822;28;20620;-72
2021/12/05 14:03:55;;;;;;;10.50;6.97;;;;;;;;;;4985772;28;20322;-72
2021/12/05 14:06:28;;;;;;;15.30;7.63;;;;;;;;;;5007386;28;20301;-72
2021/12/05 14:08:58;;;;;;;12.27;7.57;;;;;;;;;;4986884;28;20245;-72
2021/12/05 14:11:24;;;;;;;13.23;8.67;;;;;;;;;;5007420;28;20780;-72
2021/12/05 14:13:50;;;;;;;13.30;8.87;;;;;;;;;;4996015;28;20187;-72
2021/12/05 14:16:16;;;;;;;16.30;9.13;;;;;;;;;;5004714;28;20241;-71
2021/12/05 14:18:41;;;;;;;16.07;9.40;;;;;;;;;;4989378;28;20183;-72
2021/12/05 14:21:18;;;;;;;15.07;9.27;;;;;;;;;;5006769;28;20638;-72
2021/12/05 14:23:52;;;;;;;13.27;9.27;;;;;;;;;;4994923;28;20186;-72
2021/12/05 14:26:21;;;;;;;18.37;10.13;;;;;;;;;;5017273;28;20178;-72
2021/12/05 14:29:26;;;;;;;13.33;9.70;;;;;;;;;;5000148;28;20183;-71
2021/12/05 14:31:58;;;;;;;15.67;9.23;;;;;;;;;;5029551;28;20196;-72
2021/12/05 14:34:25;;;;;;;15.97;10.07;;;;;;;;;;4997370;28;20199;-71
2021/12/05 14:36:54;;;;;;;14.60;9.70;;;;;;;;;;5005897;28;20765;-71
2021/12/05 14:39:25;;;;;;;16.20;9.80;;;;;;;;;;4998236;28;20184;-72
2021/12/05 14:41:55;;;;;;;14.20;9.77;;;;;;;;;;5013147;28;20284;-71
2021/12/05 14:44:21;;;;;;;13.80;9.93;;;;;;;;;;5005679;28;20202;-72
2021/12/05 14:46:53;;;;;;;17.23;9.87;;;;;;;;;;5002689;28;20208;-72
2021/12/05 14:49:21;;;;;;;20.37;10.60;;;;;;;;;;5004773;28;20709;-72
2021/12/05 14:51:47;;;;;;;14.50;9.97;;;;;;;;;;4999125;28;20228;-72
2021/12/05 14:54:25;;;;;;;14.90;10.87;;;;;;;;;;5002389;28;20648;-72
2021/12/05 14:56:52;;;;;;;14.60;10.60;;;;;;;;;;4994578;28;20607;-72
2021/12/05 14:59:18;;;;;;;18.37;10.87;;;;;;;;;;4998890;28;20179;-72
2021/12/05 15:01:48;;;;;;;14.40;10.60;;;;;;;;;;4987670;28;20242;-72
2021/12/05 15:04:19;;;;;;;16.43;10.50;;;;;;;;;;4988665;28;20550;-72
2021/12/05 15:06:46;;;;;;;14.07;10.77;;;;;;;;;;4990137;28;20580;-71
2021/12/05 15:09:29;;;;;;;14.53;10.07;;;;;;;;;;4997858;28;20183;-72
2021/12/05 15:12:19;;;;;;;18.13;10.03;;;;;;;;;;4990797;28;20516;-71
2021/12/05 15:14:48;;;;;;;17.50;10.50;;;;;;;;;;5002417;28;20187;-71
2021/12/05 15:17:17;;;;;;;16.23;11.67;;;;;;;;;;4995996;28;20223;-72
2021/12/05 15:19:46;;;;;;;15.17;11.33;;;;;;;;;;5004597;28;20566;-72
2021/12/05 15:22:13;;;;;;;26.13;12.40;;;;;;;;;;4993619;28;20493;-72
2021/12/05 15:24:40;;;;;;;22.60;12.47;;;;;;;;;;4997185;28;20232;-72
2021/12/05 15:27:16;;;;;;;21.53;11.33;;;;;;;;;;4992382;28;20186;-71
2021/12/05 15:30:00;;;;;;;20.43;12.10;;;;;;;;;;5003442;28;20243;-71
2021/12/05 15:32:29;;;;;;;16.97;11.10;;;;;;;;;;4990564;28;20741;-71
2021/12/05 15:34:58;;;;;;;15.93;11.87;;;;;;;;;;4998144;28;20195;-72
2021/12/05 15:37:24;;;;;;;16.97;11.97;;;;;;;;;;4993057;28;20170;-71
2021/12/05 15:39:52;;;;;;;17.00;12.37;;;;;;;;;;4996146;28;20221;-71
2021/12/05 15:42:24;;;;;;;19.10;12.10;;;;;;;;;;5000019;28;20591;-71
2021/12/05 15:44:52;;;;;;;18.47;12.00;;;;;;;;;;4989875;28;20595;-72
2021/12/05 15:47:24;;;;;;;18.40;12.93;;;;;;;;;;4998731;28;20190;-71
2021/12/05 15:50:03;;;;;;;20.40;12.70;;;;;;;;;;4994230;28;20206;-73
2021/12/05 15:52:54;;;;;;;22.03;12.37;;;;;;;;;;5003091;28;20214;-72
2021/12/05 15:55:26;;;;;;;20.57;13.77;;;;;;;;;;4994152;28;20218;-72
2021/12/05 15:57:55;;;;;;;18.43;12.30;;;;;;;;;;5003610;28;20194;-72
2021/12/05 16:00:26;;;;;;;20.97;12.67;;;;;;;;;;4298920;28;10000808;-72
2021/12/05 16:02:59;;;;;;;19.33;13.20;;;;;;;;;;5000179;28;20651;-72
2021/12/05 16:05:25;;;;;;;23.13;13.83;;;;;;;;;;4988686;28;20199;-72
2021/12/05 16:07:50;;;;;;;19.33;13.37;;;;;;;;;;4999605;28;20583;-72
2021/12/05 16:10:20;;;;;;;20.40;12.97;;;;;;;;;;4991496;28;20264;-73
2021/12/05 16:12:46;;;;;;;21.83;13.53;;;;;;;;;;5001504;28;20187;-72
2021/12/05 16:15:14;;;;;;;22.93;13.57;;;;;;;;;;4993108;28;20205;-72
2021/12/05 16:17:41;;;;;;;20.20;13.10;;;;;;;;;;5001193;28;20271;-72
2021/12/05 16:20:16;;;;;;;18.63;13.60;;;;;;;;;;4993703;28;20218;-72
2021/12/05 16:23:05;;;;;;;20.37;13.47;;;;;;;;;;4998667;28;20543;-72
2021/12/05 16:25:31;;;;;;;19.70;12.93;;;;;;;;;;4990611;28;20542;-72
2021/12/05 16:28:02;;;;;;;24.47;14.53;;;;;;;;;;5002440;28;20634;-72
2021/12/05 16:30:34;;;;;;;16.80;10.77;;;;;;;;;;4986240;28;24995;-72
2021/12/05 16:33:02;;;;;;;23.47;14.10;;;;;;;;;;5000003;28;20195;-72
2021/12/05 16:35:37;;;;;;;21.70;13.83;;;;;;;;;;4993560;28;20292;-72
2021/12/05 16:38:20;;;;;;;22.53;14.03;;;;;;;;;;5003113;28;20198;-72
2021/12/05 16:41:05;;;;;;;20.33;14.13;;;;;;;;;;4997938;28;20206;-72
2021/12/05 16:43:32;;;;;;;25.53;14.23;;;;;;;;;;5006986;28;20203;-72
2021/12/05 16:46:20;;;;;;;23.27;14.17;;;;;;;;;;5004125;28;20265;-72
2021/12/05 16:48:46;;;;;;;23.43;14.27;;;;;;;;;;5009712;28;20195;-72
2021/12/05 16:51:26;;;;;;;20.73;13.77;;;;;;;;;;5007444;28;20194;-72
2021/12/05 16:53:58;;;;;;;23.77;13.57;;;;;;;;;;5005462;28;20199;-72
2021/12/05 16:56:47;;;;;;;19.40;14.27;;;;;;;;;;5011481;28;20210;-72
2021/12/05 16:59:18;;;;;;;23.17;14.90;;;;;;;;;;5003275;28;20558;-71
2021/12/05 17:01:45;;;;;;;21.10;13.57;;;;;;;;;;5005966;28;20198;-73
2021/12/05 17:04:11;;;;;;;21.13;13.97;;;;;;;;;;5000722;28;20554;-72
2021/12/05 17:06:53;;;;;;;18.87;13.17;;;;;;;;;;5012695;28;20201;-72
2021/12/05 17:09:21;;;;;;;22.60;13.20;;;;;;;;;;4997400;28;20213;-72
2021/12/05 17:11:46;;;;;;;18.97;13.07;;;;;;;;;;4993849;28;20206;-72
2021/12/05 17:14:21;;;;;;;21.10;13.83;;;;;;;;;;4646514;28;10000435;-72
2021/12/05 17:16:46;;;;;;;25.97;14.30;;;;;;;;;;5002885;28;20610;-72
2021/12/05 17:19:13;;;;;;;24.17;16.60;;;;;;;;;;4992377;28;20193;-72
2021/12/05 17:21:41;;;;;;;26.77;16.20;;;;;;;;;;5005484;28;20194;-72
2021/12/05 17:24:06;;;;;;;24.13;16.67;;;;;;;;;;4989334;28;20228;-72
2021/12/05 17:26:34;;;;;;;35.83;22.60;;;;;;;;;;5001518;28;20985;-72
2021/12/05 17:29:08;;;;;;;63.07;37.23;;;;;;;;;;4998036;28;20187;-72
2021/12/05 17:31:41;;;;;;;88.37;47.07;;;;;;;;;;5011484;28;20236;-72
2021/12/05 17:34:30;;;;;;;115.60;60.40;;;;;;;;;;5003643;28;20209;-72
2021/12/05 17:36:55;;;;;;;97.23;53.97;;;;;;;;;;5001776;28;20195;-72
2021/12/05 17:39:23;;;;;;;75.53;42.13;;;;;;;;;;4994304;28;20240;-72
2021/12/05 17:41:56;;;;;;;60.73;36.83;;;;;;;;;;5007091;28;20582;-72
2021/12/05 17:44:22;;;;;;;52.37;29.83;;;;;;;;;;4995207;28;20187;-72
2021/12/05 17:46:50;;;;;;;47.73;27.83;;;;;;;;;;5007248;28;20197;-72
2021/12/05 17:49:17;;;;;;;41.70;23.60;;;;;;;;;;4992472;28;20524;-72
2021/12/05 17:51:44;;;;;;;34.77;20.33;;;;;;;;;;5002927;28;20191;-72
2021/12/05 17:54:24;;;;;;;31.37;19.90;;;;;;;;;;5001535;28;20669;-72
2021/12/05 17:56:52;;;;;;;34.13;19.07;;;;;;;;;;5004737;28;20218;-72
2021/12/05 18:04:31;;;;;;;26.77;16.97;;;;;;;;;;4999185;28;20652;-72
2021/12/05 18:06:57;;;;;;;28.10;16.50;;;;;;;;;;4995048;28;20187;-72
2021/12/05 18:09:23;;;;;;;25.07;15.57;;;;;;;;;;5002323;28;20202;-72
2021/12/05 18:11:50;;;;;;;26.53;15.17;;;;;;;;;;4992972;28;20211;-72
2021/12/05 18:14:16;;;;;;;24.63;15.03;;;;;;;;;;5013045;28;20194;-72
2021/12/05 18:16:42;;;;;;;23.23;15.13;;;;;;;;;;4992977;28;20235;-72
2021/12/05 18:19:10;;;;;;;23.67;14.70;;;;;;;;;;5004714;28;20265;-72
2021/12/05 18:21:37;;;;;;;21.53;13.83;;;;;;;;;;4995683;28;20647;-72
2021/12/05 18:24:12;;;;;;;27.00;14.73;;;;;;;;;;5008298;28;20203;-72
2021/12/05 18:26:38;;;;;;;25.00;13.67;;;;;;;;;;4992214;28;20677;-72
2021/12/05 18:29:06;;;;;;;24.23;13.67;;;;;;;;;;5005184;28;20409;-72
2021/12/05 18:31:34;;;;;;;20.53;14.10;;;;;;;;;;4995773;28;20211;-72
2021/12/05 18:34:11;;;;;;;21.50;14.57;;;;;;;;;;5003567;28;20194;-72
2021/12/05 18:36:39;;;;;;;23.13;13.77;;;;;;;;;;4995085;28;20550;-72
2021/12/05 18:39:09;;;;;;;23.70;15.00;;;;;;;;;;5001200;28;20307;-72
2021/12/05 18:41:36;;;;;;;29.00;16.80;;;;;;;;;;5008865;28;20171;-72
2021/12/05 18:44:04;;;;;;;24.20;15.07;;;;;;;;;;4998271;28;20553;-72
2021/12/05 18:46:30;;;;;;;24.23;14.43;;;;;;;;;;5010216;28;20194;-72
2021/12/05 18:48:55;;;;;;;21.83;13.93;;;;;;;;;;5001667;28;20263;-73
2021/12/05 18:51:21;;;;;;;24.77;15.63;;;;;;;;;;5011904;28;20218;-73
2021/12/05 18:53:48;;;;;;;29.73;15.37;;;;;;;;;;4991105;28;20199;-72
2021/12/05 18:56:14;;;;;;;21.97;14.23;;;;;;;;;;5002815;28;20215;-73
2021/12/05 18:58:42;;;;;;;23.60;14.27;;;;;;;;;;4996528;28;20195;-72
2021/12/05 19:06:46;;;;;;;28.70;15.33;;;;;;;;;;5012587;28;20287;-71
2021/12/05 19:11:42;;;;;;;25.73;14.53;;;;;;;;;;4997957;28;20217;-72
2021/12/05 19:12:08;;;;;;;24.80;14.40;;;;;;;;;;5012591;28;20193;-72
2021/12/05 19:14:39;;;;;;;25.30;14.50;;;;;;;;;;4992344;28;20236;-72
2021/12/05 19:17:08;;;;;;;22.87;14.20;;;;;;;;;;5011798;28;20600;-71
2021/12/05 19:19:35;;;;;;;27.27;14.83;;;;;;;;;;4996174;28;20194;-72
2021/12/05 19:22:02;;;;;;;28.20;14.63;;;;;;;;;;5009000;28;20199;-72
2021/12/05 19:24:28;;;;;;;24.37;15.30;;;;;;;;;;4996891;28;20575;-71
2021/12/05 19:26:58;;;;;;;26.70;14.77;;;;;;;;;;5012551;28;20186;-71
2021/12/05 19:29:24;;;;;;;26.23;15.63;;;;;;;;;;4992902;28;20671;-71
2021/12/05 19:31:53;;;;;;;27.77;16.20;;;;;;;;;;5008561;28;20198;-71
2021/12/05 19:34:19;;;;;;;26.60;16.23;;;;;;;;;;5003091;28;20182;-72
2021/12/05 19:36:45;;;;;;;24.33;15.37;;;;;;;;;;4995470;28;20241;-72
2021/12/05 19:39:11;;;;;;;27.63;17.00;;;;;;;;;;5000849;28;20603;-72
2021/12/05 19:41:37;;;;;;;25.83;15.87;;;;;;;;;;4996700;28;20182;-72
2021/12/05 19:44:03;;;;;;;23.77;15.70;;;;;;;;;;5003131;28;20186;-72